Anatife — FGE8389 — position and weather

sailwx.info

Track history (hours):
 
Tides and Currents Weather Stations Pressure Air Temp Water Temp Dewpoint Dewpoint Depression Visibility Wind Speed Wind Dir Waves Ship Positions

Anatife

Last reported at 2017-Mar-16 07:33 UTC. Time now 2017-Mar-28 23:39 UTC.
Position N 47°18' W 002°05'.
Warning: this ship's position is 12 days out of date.

Length 41 m; draft 2 m.

Type: Tanker. MMSI: 227681520.

Date/timePositionNaut miles runAvg speedWind from/ knotsBaromVisibWave heightAir tempDewpointWater temp
2017-Mar-16 07:33N 47°18' W 002°05'0 0.0
2017-Mar-16 06:33N 47°18' W 002°05'0 0.0
2017-Mar-16 05:33N 47°18' W 002°05'0 0.0
2017-Mar-16 04:33N 47°18' W 002°05'0 0.0
2017-Mar-16 03:33N 47°18' W 002°05'0 0.0
2017-Mar-16 02:33N 47°18' W 002°05'0 0.0
2017-Mar-16 01:33N 47°18' W 002°05'0 0.0
2017-Mar-16 00:33N 47°18' W 002°05'0 0.0
2017-Mar-15 23:33N 47°18' W 002°05'0 0.0
2017-Mar-15 22:33N 47°18' W 002°05'0 0.0
2017-Mar-15 21:33N 47°18' W 002°05'0 0.0
2017-Mar-15 20:33N 47°18' W 002°05'6 5.8
2017-Mar-15 19:33N 47°16' W 002°12'9 8.7
2017-Mar-15 18:32N 47°13' W 002°25'1210.6
2017-Mar-15 17:27N 47°15' W 002°42'1011.1
2017-Mar-15 16:32N 47°18' W 002°56'10 9.6
2017-Mar-15 15:32N 47°21' W 003°09'0 0.0
2017-Mar-15 14:33N 47°21' W 003°09'0 0.0
2017-Mar-15 13:33N 47°21' W 003°09'0 0.0
2017-Mar-15 12:32N 47°21' W 003°09'0 0.0
2017-Mar-15 11:32N 47°21' W 003°09'0 0.0
2017-Mar-15 10:32N 47°21' W 003°09'0 0.0
2017-Mar-15 09:32N 47°21' W 003°09'0 0.0
2017-Mar-15 08:32N 47°21' W 003°09'0 0.0
2017-Mar-15 07:32N 47°21' W 003°09'0 0.0
2017-Mar-15 06:32N 47°21' W 003°09'0 0.0
2017-Mar-15 05:32N 47°21' W 003°09'0 0.0
2017-Mar-15 04:32N 47°21' W 003°09'0 0.0
2017-Mar-15 03:32N 47°21' W 003°09'0 0.0
2017-Mar-15 02:32N 47°21' W 003°09'0 0.0
2017-Mar-15 01:32N 47°21' W 003°09'0 0.0
2017-Mar-15 00:33N 47°21' W 003°09'0 0.0
2017-Mar-14 23:33N 47°21' W 003°09'0 0.0
2017-Mar-14 22:32N 47°21' W 003°09'0 0.0
2017-Mar-14 21:32N 47°21' W 003°09'0 0.0
2017-Mar-14 20:33N 47°21' W 003°09'0 0.0
2017-Mar-14 19:32N 47°21' W 003°09'0 0.0
2017-Mar-14 18:32N 47°21' W 003°09'0 0.0
2017-Mar-14 17:32N 47°21' W 003°09'0 0.0
2017-Mar-14 16:32N 47°21' W 003°09'0 0.0
2017-Mar-14 15:33N 47°21' W 003°09'2 1.7
2017-Mar-14 14:33N 47°21' W 003°07'8 8.1
2017-Mar-14 13:33N 47°18' W 002°56'10 9.6
2017-Mar-14 12:33N 47°15' W 002°42'10 9.9
2017-Mar-14 11:33N 47°14' W 002°28'1010.1
2017-Mar-14 10:34N 47°15' W 002°13'6 6.4
2017-Mar-14 09:33N 47°18' W 002°05'0 0.0
2017-Mar-14 08:33N 47°18' W 002°05'0 0.0
2017-Mar-14 07:33N 47°18' W 002°05'0 0.0
2017-Mar-14 06:33N 47°18' W 002°05'0 0.0
2017-Mar-14 05:33N 47°18' W 002°05'0 0.0
2017-Mar-14 04:33N 47°18' W 002°05'0 0.0
2017-Mar-14 03:33N 47°18' W 002°05'0 0.0
2017-Mar-14 02:33N 47°18' W 002°05'0 0.0
2017-Mar-14 01:33N 47°18' W 002°05'0 0.0
2017-Mar-14 00:33N 47°18' W 002°05'0 0.0
2017-Mar-13 23:33N 47°18' W 002°05'0 0.0
2017-Mar-13 22:33N 47°18' W 002°05'0 0.0
2017-Mar-13 21:33N 47°18' W 002°05'0 0.0
2017-Mar-13 20:33N 47°18' W 002°05'0 0.0
2017-Mar-13 19:33N 47°18' W 002°05'0 0.0
2017-Mar-13 18:33N 47°18' W 002°05'0 0.0
2017-Mar-13 17:28N 47°18' W 002°05'0 0.0
2017-Mar-13 15:18N 47°18' W 002°05'0 0.0
2017-Mar-13 12:09N 47°18' W 002°05'0 0.0
2017-Mar-13 11:31N 47°18' W 002°05'0 0.0
2017-Mar-13 10:21N 47°18' W 002°05'0 0.0
2017-Mar-13 09:32N 47°18' W 002°05'0 0.0
2017-Mar-13 08:33N 47°18' W 002°05'0 0.0
2017-Mar-13 07:32N 47°18' W 002°05'0 0.0
2017-Mar-11 22:33N 47°18' W 002°05'0 0.0
2017-Mar-11 21:33N 47°18' W 002°05'0 0.0
2017-Mar-11 20:33N 47°18' W 002°05'0 0.0
2017-Mar-11 19:33N 47°18' W 002°05'0 0.0
2017-Mar-11 18:33N 47°18' W 002°05'0 0.0
2017-Mar-11 17:33N 47°18' W 002°05'0 0.0
2017-Mar-11 16:33N 47°18' W 002°05'0 0.0
2017-Mar-11 15:33N 47°18' W 002°05'0 0.0
2017-Mar-11 14:33N 47°18' W 002°05'0 0.0
2017-Mar-11 13:33N 47°18' W 002°05'0 0.0
2017-Mar-11 12:33N 47°18' W 002°05'0 0.0
2017-Mar-11 11:33N 47°18' W 002°05'0 0.0
2017-Mar-11 10:33N 47°18' W 002°05'0 0.0
2017-Mar-11 09:33N 47°18' W 002°05'0 0.0
2017-Mar-11 08:33N 47°18' W 002°05'0 0.0
2017-Mar-11 07:33N 47°18' W 002°05'0 0.0
2017-Mar-11 06:33N 47°18' W 002°05'0 0.0
2017-Mar-11 05:33N 47°18' W 002°05'0 0.0
2017-Mar-11 04:33N 47°18' W 002°05'0 0.0
2017-Mar-11 03:33N 47°18' W 002°05'0 0.0
2017-Mar-11 02:33N 47°18' W 002°05'0 0.0
2017-Mar-11 01:33N 47°18' W 002°05'0 0.0
2017-Mar-11 00:33N 47°18' W 002°05'0 0.0
2017-Mar-10 23:33N 47°18' W 002°05'0 0.0
2017-Mar-10 22:33N 47°18' W 002°05'0 0.0
2017-Mar-10 21:33N 47°18' W 002°05'0 0.0
2017-Mar-10 20:33N 47°18' W 002°05'0 0.0
2017-Mar-10 19:33N 47°18' W 002°05'0 0.0
2017-Mar-10 18:33N 47°18' W 002°05'0 0.0
2017-Mar-10 17:33N 47°18' W 002°05'0 0.0
2017-Mar-10 16:33N 47°18' W 002°05'0 0.0
2017-Mar-10 15:33N 47°18' W 002°05'0 0.0
2017-Mar-10 14:33N 47°18' W 002°05'0 0.0
2017-Mar-10 13:33N 47°18' W 002°05'0 0.0
2017-Mar-10 12:33N 47°18' W 002°05'0 0.0
2017-Mar-10 11:33N 47°18' W 002°05'0 0.0
2017-Mar-10 10:33N 47°18' W 002°05'7 7.0
2017-Mar-10 09:33N 47°15' W 002°14'10 9.9
2017-Mar-10 08:33N 47°07' W 002°22'1010.2
2017-Mar-10 07:33N 46°57' W 002°28'1010.4
2017-Mar-10 06:33N 46°47' W 002°23'4 4.1
2017-Mar-10 05:33N 46°44' W 002°21'0 0.0
2017-Mar-10 04:32N 46°44' W 002°21'0 0.0
2017-Mar-10 03:33N 46°44' W 002°21'0 0.0
2017-Mar-10 02:33N 46°44' W 002°21'0 0.0
2017-Mar-10 01:33N 46°44' W 002°21'0 0.0
2017-Mar-10 00:33N 46°44' W 002°21'0 0.0
2017-Mar-09 23:33N 46°44' W 002°21'0 0.0
2017-Mar-09 22:33N 46°44' W 002°21'0 0.0
2017-Mar-09 21:33N 46°44' W 002°21'0 0.0
2017-Mar-09 20:32N 46°44' W 002°21'0 0.0
2017-Mar-09 19:33N 46°44' W 002°21'0 0.0
2017-Mar-09 18:33N 46°44' W 002°21'0 0.0
2017-Mar-09 17:27N 46°44' W 002°21'0 0.0
2017-Mar-09 09:30N 46°44' W 002°21'7 7.5
2017-Mar-09 08:33N 46°50' W 002°25'9 8.6
2017-Mar-09 07:32N 46°59' W 002°28'9 9.1
2017-Mar-09 06:33N 47°07' W 002°21'1110.7
2017-Mar-09 05:33N 47°15' W 002°13'6 6.1
2017-Mar-09 04:33N 47°18' W 002°05'0 0.0
2017-Mar-09 03:33N 47°18' W 002°05'0 0.0
2017-Mar-09 02:33N 47°18' W 002°05'0 0.0
2017-Mar-09 01:33N 47°18' W 002°05'0 0.0
2017-Mar-09 00:33N 47°18' W 002°05'0 0.0
2017-Mar-08 23:33N 47°18' W 002°05'0 0.0
2017-Mar-08 22:33N 47°18' W 002°05'0 0.0
2017-Mar-08 21:33N 47°18' W 002°05'0 0.0
2017-Mar-08 20:33N 47°18' W 002°05'0 0.0
2017-Mar-08 19:33N 47°18' W 002°05'0 0.0
2017-Mar-08 18:33N 47°18' W 002°05'0 0.0
2017-Mar-08 17:33N 47°18' W 002°05'0 0.0
2017-Mar-08 16:33N 47°18' W 002°05'0 0.0
2017-Mar-08 15:33N 47°18' W 002°05'0 0.0
2017-Mar-08 14:33N 47°18' W 002°05'0 0.0
2017-Mar-08 13:25N 47°18' W 002°05'0 0.0
2017-Mar-08 12:33N 47°18' W 002°05'0 0.0
2017-Mar-08 11:33N 47°18' W 002°05'0 0.0
2017-Mar-08 10:33N 47°18' W 002°05'0 0.0
2017-Mar-08 09:33N 47°18' W 002°05'0 0.0
2017-Mar-08 08:33N 47°18' W 002°05'0 0.0
2017-Mar-08 07:33N 47°18' W 002°05'0 0.0
2017-Mar-08 06:33N 47°18' W 002°05'0 0.0
2017-Mar-08 05:33N 47°18' W 002°05'  
Track history (hours):
 
Tides and Currents Weather Stations Pressure Air Temp Water Temp Dewpoint Dewpoint Depression Visibility Wind Speed Wind Dir Waves Ship Positions

Anatife

Last reported at 2017-Mar-16 07:33 UTC. Time now 2017-Mar-28 23:39 UTC.
Position N 47°18' W 002°05'.
Warning: this ship's position is 12 days out of date.

Length 41 m; draft 2 m.

Type: Tanker. MMSI: 227681520.

Date/timePositionNaut miles runAvg speedWind from/ knotsBaromVisibWave heightAir tempDewpointWater temp
2017-Mar-16 07:33N 47°18' W 002°05'0 0.0
2017-Mar-16 06:33N 47°18' W 002°05'0 0.0
2017-Mar-16 05:33N 47°18' W 002°05'0 0.0
2017-Mar-16 04:33N 47°18' W 002°05'0 0.0
2017-Mar-16 03:33N 47°18' W 002°05'0 0.0
2017-Mar-16 02:33N 47°18' W 002°05'0 0.0
2017-Mar-16 01:33N 47°18' W 002°05'0 0.0
2017-Mar-16 00:33N 47°18' W 002°05'0 0.0
2017-Mar-15 23:33N 47°18' W 002°05'0 0.0
2017-Mar-15 22:33N 47°18' W 002°05'0 0.0
2017-Mar-15 21:33N 47°18' W 002°05'0 0.0
2017-Mar-15 20:33N 47°18' W 002°05'6 5.8
2017-Mar-15 19:33N 47°16' W 002°12'9 8.7
2017-Mar-15 18:32N 47°13' W 002°25'1210.6
2017-Mar-15 17:27N 47°15' W 002°42'1011.1
2017-Mar-15 16:32N 47°18' W 002°56'10 9.6
2017-Mar-15 15:32N 47°21' W 003°09'0 0.0
2017-Mar-15 14:33N 47°21' W 003°09'0 0.0
2017-Mar-15 13:33N 47°21' W 003°09'0 0.0
2017-Mar-15 12:32N 47°21' W 003°09'0 0.0
2017-Mar-15 11:32N 47°21' W 003°09'0 0.0
2017-Mar-15 10:32N 47°21' W 003°09'0 0.0
2017-Mar-15 09:32N 47°21' W 003°09'0 0.0
2017-Mar-15 08:32N 47°21' W 003°09'0 0.0
2017-Mar-15 07:32N 47°21' W 003°09'0 0.0
2017-Mar-15 06:32N 47°21' W 003°09'0 0.0
2017-Mar-15 05:32N 47°21' W 003°09'0 0.0
2017-Mar-15 04:32N 47°21' W 003°09'0 0.0
2017-Mar-15 03:32N 47°21' W 003°09'0 0.0
2017-Mar-15 02:32N 47°21' W 003°09'0 0.0
2017-Mar-15 01:32N 47°21' W 003°09'0 0.0
2017-Mar-15 00:33N 47°21' W 003°09'0 0.0
2017-Mar-14 23:33N 47°21' W 003°09'0 0.0
2017-Mar-14 22:32N 47°21' W 003°09'0 0.0
2017-Mar-14 21:32N 47°21' W 003°09'0 0.0
2017-Mar-14 20:33N 47°21' W 003°09'0 0.0
2017-Mar-14 19:32N 47°21' W 003°09'0 0.0
2017-Mar-14 18:32N 47°21' W 003°09'0 0.0
2017-Mar-14 17:32N 47°21' W 003°09'0 0.0
2017-Mar-14 16:32N 47°21' W 003°09'0 0.0
2017-Mar-14 15:33N 47°21' W 003°09'2 1.7
2017-Mar-14 14:33N 47°21' W 003°07'8 8.1
2017-Mar-14 13:33N 47°18' W 002°56'10 9.6
2017-Mar-14 12:33N 47°15' W 002°42'10 9.9
2017-Mar-14 11:33N 47°14' W 002°28'1010.1
2017-Mar-14 10:34N 47°15' W 002°13'6 6.4
2017-Mar-14 09:33N 47°18' W 002°05'0 0.0
2017-Mar-14 08:33N 47°18' W 002°05'0 0.0
2017-Mar-14 07:33N 47°18' W 002°05'0 0.0
2017-Mar-14 06:33N 47°18' W 002°05'0 0.0
2017-Mar-14 05:33N 47°18' W 002°05'0 0.0
2017-Mar-14 04:33N 47°18' W 002°05'0 0.0
2017-Mar-14 03:33N 47°18' W 002°05'0 0.0
2017-Mar-14 02:33N 47°18' W 002°05'0 0.0
2017-Mar-14 01:33N 47°18' W 002°05'0 0.0
2017-Mar-14 00:33N 47°18' W 002°05'0 0.0
2017-Mar-13 23:33N 47°18' W 002°05'0 0.0
2017-Mar-13 22:33N 47°18' W 002°05'0 0.0
2017-Mar-13 21:33N 47°18' W 002°05'0 0.0
2017-Mar-13 20:33N 47°18' W 002°05'0 0.0
2017-Mar-13 19:33N 47°18' W 002°05'0 0.0
2017-Mar-13 18:33N 47°18' W 002°05'0 0.0
2017-Mar-13 17:28N 47°18' W 002°05'0 0.0
2017-Mar-13 15:18N 47°18' W 002°05'0 0.0
2017-Mar-13 12:09N 47°18' W 002°05'0 0.0
2017-Mar-13 11:31N 47°18' W 002°05'0 0.0
2017-Mar-13 10:21N 47°18' W 002°05'0 0.0
2017-Mar-13 09:32N 47°18' W 002°05'0 0.0
2017-Mar-13 08:33N 47°18' W 002°05'0 0.0
2017-Mar-13 07:32N 47°18' W 002°05'0 0.0
2017-Mar-11 22:33N 47°18' W 002°05'0 0.0
2017-Mar-11 21:33N 47°18' W 002°05'0 0.0
2017-Mar-11 20:33N 47°18' W 002°05'0 0.0
2017-Mar-11 19:33N 47°18' W 002°05'0 0.0
2017-Mar-11 18:33N 47°18' W 002°05'0 0.0
2017-Mar-11 17:33N 47°18' W 002°05'0 0.0
2017-Mar-11 16:33N 47°18' W 002°05'0 0.0
2017-Mar-11 15:33N 47°18' W 002°05'0 0.0
2017-Mar-11 14:33N 47°18' W 002°05'0 0.0
2017-Mar-11 13:33N 47°18' W 002°05'0 0.0
2017-Mar-11 12:33N 47°18' W 002°05'0 0.0
2017-Mar-11 11:33N 47°18' W 002°05'0 0.0
2017-Mar-11 10:33N 47°18' W 002°05'0 0.0
2017-Mar-11 09:33N 47°18' W 002°05'0 0.0
2017-Mar-11 08:33N 47°18' W 002°05'0 0.0
2017-Mar-11 07:33N 47°18' W 002°05'0 0.0
2017-Mar-11 06:33N 47°18' W 002°05'0 0.0
2017-Mar-11 05:33N 47°18' W 002°05'0 0.0
2017-Mar-11 04:33N 47°18' W 002°05'0 0.0
2017-Mar-11 03:33N 47°18' W 002°05'0 0.0
2017-Mar-11 02:33N 47°18' W 002°05'0 0.0
2017-Mar-11 01:33N 47°18' W 002°05'0 0.0
2017-Mar-11 00:33N 47°18' W 002°05'0 0.0
2017-Mar-10 23:33N 47°18' W 002°05'0 0.0
2017-Mar-10 22:33N 47°18' W 002°05'0 0.0
2017-Mar-10 21:33N 47°18' W 002°05'0 0.0
2017-Mar-10 20:33N 47°18' W 002°05'0 0.0
2017-Mar-10 19:33N 47°18' W 002°05'0 0.0
2017-Mar-10 18:33N 47°18' W 002°05'0 0.0
2017-Mar-10 17:33N 47°18' W 002°05'0 0.0
2017-Mar-10 16:33N 47°18' W 002°05'0 0.0
2017-Mar-10 15:33N 47°18' W 002°05'0 0.0
2017-Mar-10 14:33N 47°18' W 002°05'0 0.0
2017-Mar-10 13:33N 47°18' W 002°05'0 0.0
2017-Mar-10 12:33N 47°18' W 002°05'0 0.0
2017-Mar-10 11:33N 47°18' W 002°05'0 0.0
2017-Mar-10 10:33N 47°18' W 002°05'7 7.0
2017-Mar-10 09:33N 47°15' W 002°14'10 9.9
2017-Mar-10 08:33N 47°07' W 002°22'1010.2
2017-Mar-10 07:33N 46°57' W 002°28'1010.4
2017-Mar-10 06:33N 46°47' W 002°23'4 4.1
2017-Mar-10 05:33N 46°44' W 002°21'0 0.0
2017-Mar-10 04:32N 46°44' W 002°21'0 0.0
2017-Mar-10 03:33N 46°44' W 002°21'0 0.0
2017-Mar-10 02:33N 46°44' W 002°21'0 0.0
2017-Mar-10 01:33N 46°44' W 002°21'0 0.0
2017-Mar-10 00:33N 46°44' W 002°21'0 0.0
2017-Mar-09 23:33N 46°44' W 002°21'0 0.0
2017-Mar-09 22:33N 46°44' W 002°21'0 0.0
2017-Mar-09 21:33N 46°44' W 002°21'0 0.0
2017-Mar-09 20:32N 46°44' W 002°21'0 0.0
2017-Mar-09 19:33N 46°44' W 002°21'0 0.0
2017-Mar-09 18:33N 46°44' W 002°21'0 0.0
2017-Mar-09 17:27N 46°44' W 002°21'0 0.0
2017-Mar-09 09:30N 46°44' W 002°21'7 7.5
2017-Mar-09 08:33N 46°50' W 002°25'9 8.6
2017-Mar-09 07:32N 46°59' W 002°28'9 9.1
2017-Mar-09 06:33N 47°07' W 002°21'1110.7
2017-Mar-09 05:33N 47°15' W 002°13'6 6.1
2017-Mar-09 04:33N 47°18' W 002°05'0 0.0
2017-Mar-09 03:33N 47°18' W 002°05'0 0.0
2017-Mar-09 02:33N 47°18' W 002°05'0 0.0
2017-Mar-09 01:33N 47°18' W 002°05'0 0.0
2017-Mar-09 00:33N 47°18' W 002°05'0 0.0
2017-Mar-08 23:33N 47°18' W 002°05'0 0.0
2017-Mar-08 22:33N 47°18' W 002°05'0 0.0
2017-Mar-08 21:33N 47°18' W 002°05'0 0.0
2017-Mar-08 20:33N 47°18' W 002°05'0 0.0
2017-Mar-08 19:33N 47°18' W 002°05'0 0.0
2017-Mar-08 18:33N 47°18' W 002°05'0 0.0
2017-Mar-08 17:33N 47°18' W 002°05'0 0.0
2017-Mar-08 16:33N 47°18' W 002°05'0 0.0
2017-Mar-08 15:33N 47°18' W 002°05'0 0.0
2017-Mar-08 14:33N 47°18' W 002°05'0 0.0
2017-Mar-08 13:25N 47°18' W 002°05'0 0.0
2017-Mar-08 12:33N 47°18' W 002°05'0 0.0
2017-Mar-08 11:33N 47°18' W 002°05'0 0.0
2017-Mar-08 10:33N 47°18' W 002°05'0 0.0
2017-Mar-08 09:33N 47°18' W 002°05'0 0.0
2017-Mar-08 08:33N 47°18' W 002°05'0 0.0
2017-Mar-08 07:33N 47°18' W 002°05'0 0.0
2017-Mar-08 06:33N 47°18' W 002°05'0 0.0
2017-Mar-08 05:33N 47°18' W 002°05'  

Dump ship's entire track history